createdAt,value
2023-04-08T00:00:17.329Z,51.40
2023-04-08T00:02:43.972Z,50.78
2023-04-08T00:05:10.620Z,51.14
2023-04-08T00:07:37.476Z,51.15
2023-04-08T00:10:04.317Z,51.02
2023-04-08T00:12:30.936Z,50.71
2023-04-08T00:14:58.030Z,50.39
2023-04-08T00:17:24.574Z,50.13
2023-04-08T00:19:51.727Z,50.46
2023-04-08T00:22:18.549Z,49.95
2023-04-08T00:24:45.040Z,50.14
2023-04-08T00:27:11.567Z,49.64
2023-04-08T00:29:38.050Z,50.08
2023-04-08T00:32:04.845Z,50.38
2023-04-08T00:34:31.326Z,49.93
2023-04-08T00:36:58.259Z,49.52
2023-04-08T00:39:25.044Z,49.49
2023-04-08T00:41:51.502Z,49.79
2023-04-08T00:44:18.097Z,50.11
2023-04-08T00:46:44.585Z,50.06
2023-04-08T00:49:11.438Z,49.45
2023-04-08T00:51:38.009Z,49.90
2023-04-08T00:54:05.299Z,50.22
2023-04-08T00:56:32.786Z,49.98
2023-04-08T00:59:00.418Z,49.06
2023-04-08T01:01:35.351Z,49.18
2023-04-08T01:04:20.695Z,49.63
2023-04-08T01:07:17.546Z,49.36
2023-04-08T01:09:46.952Z,49.44
2023-04-08T01:12:18.641Z,49.78
2023-04-08T01:14:47.190Z,49.67
2023-04-08T01:17:15.361Z,49.45
2023-04-08T01:19:44.781Z,49.88
2023-04-08T01:22:19.830Z,49.97
2023-04-08T01:24:47.905Z,50.15
2023-04-08T01:27:14.484Z,49.65
2023-04-08T01:29:42.097Z,50.02
2023-04-08T01:32:09.401Z,49.60
2023-04-08T01:34:36.375Z,49.48
2023-04-08T01:37:03.440Z,49.69
2023-04-08T01:39:30.556Z,50.10
2023-04-08T01:41:59.169Z,49.34
2023-04-08T01:44:26.463Z,49.51
2023-04-08T01:46:54.114Z,49.50
2023-04-08T01:49:22.605Z,49.73
2023-04-08T01:51:49.277Z,49.44
2023-04-08T01:54:16.172Z,49.58
2023-04-08T01:56:44.688Z,49.64
2023-04-08T01:59:14.235Z,49.37
2023-04-08T02:01:41.989Z,49.61
2023-04-08T02:04:08.666Z,49.15
2023-04-08T02:06:35.940Z,49.79
2023-04-08T02:09:02.806Z,50.06
2023-04-08T02:11:29.776Z,49.32
2023-04-08T02:13:56.890Z,49.59
2023-04-08T02:16:31.369Z,49.61
2023-04-08T02:19:08.532Z,49.87
2023-04-08T02:21:47.518Z,49.63
2023-04-08T02:24:15.480Z,49.84
2023-04-08T02:26:43.363Z,49.50
2023-04-08T02:29:12.792Z,49.72
2023-04-08T02:31:41.889Z,49.76
2023-04-08T02:34:10.438Z,49.57
2023-04-08T02:36:37.385Z,49.65
2023-04-08T02:39:04.133Z,49.57
2023-04-08T02:41:31.474Z,49.46
2023-04-08T02:43:58.480Z,49.11
2023-04-08T02:46:24.985Z,49.08
2023-04-08T02:48:51.908Z,49.71
2023-04-08T02:51:18.468Z,49.31
2023-04-08T02:53:45.390Z,49.27
2023-04-08T02:56:12.030Z,49.99
2023-04-08T02:58:38.583Z,49.41
2023-04-08T03:01:05.504Z,49.62
2023-04-08T03:03:32.295Z,49.52
2023-04-08T03:05:58.901Z,49.30
2023-04-08T03:08:25.881Z,49.82
2023-04-08T03:10:52.497Z,49.46
2023-04-08T03:13:19.045Z,50.04
2023-04-08T03:15:45.844Z,49.71
2023-04-08T03:18:12.346Z,49.76
2023-04-08T03:20:38.813Z,49.77
2023-04-08T03:23:05.445Z,49.67
2023-04-08T03:25:32.016Z,49.95
2023-04-08T03:27:58.616Z,49.36
2023-04-08T03:30:25.261Z,49.51
2023-04-08T03:32:51.816Z,49.67
2023-04-08T03:35:18.396Z,49.81
2023-04-08T03:37:44.922Z,49.40
2023-04-08T03:40:12.066Z,49.83
2023-04-08T03:42:38.682Z,49.44
2023-04-08T03:45:05.704Z,49.37
2023-04-08T03:47:32.334Z,49.51
2023-04-08T03:49:58.848Z,49.18
2023-04-08T03:52:25.661Z,49.33
2023-04-08T03:54:52.245Z,49.33
2023-04-08T03:57:18.715Z,49.25
2023-04-08T03:59:45.319Z,49.02
2023-04-08T04:02:11.871Z,49.47
2023-04-08T04:04:38.735Z,49.21
2023-04-08T04:07:05.274Z,49.31
2023-04-08T04:09:31.773Z,48.64
2023-04-08T04:11:58.262Z,49.16
2023-04-08T04:14:24.794Z,49.43
2023-04-08T04:16:51.277Z,49.17
2023-04-08T04:19:18.418Z,49.46
2023-04-08T04:21:44.966Z,49.60
2023-04-08T04:24:11.502Z,49.15
2023-04-08T04:26:38.118Z,49.29
2023-04-08T04:29:04.793Z,49.00
2023-04-08T04:31:31.363Z,49.00
2023-04-08T04:33:57.865Z,49.19
2023-04-08T04:36:24.347Z,49.55
2023-04-08T04:38:51.573Z,48.96
2023-04-08T04:41:18.392Z,49.15
2023-04-08T04:43:44.967Z,49.03
2023-04-08T04:46:11.514Z,49.50
2023-04-08T04:48:38.080Z,49.81
2023-04-08T04:51:04.624Z,49.56
2023-04-08T04:53:31.696Z,49.13
2023-04-08T04:55:58.624Z,49.53
2023-04-08T04:58:25.421Z,49.51
2023-04-08T05:00:51.975Z,49.16
2023-04-08T05:03:18.539Z,49.62
2023-04-08T05:05:45.406Z,49.46
2023-04-08T05:08:11.900Z,49.59
2023-04-08T05:10:40.799Z,49.65
2023-04-08T05:13:07.299Z,49.36
2023-04-08T05:15:33.801Z,49.13
2023-04-08T05:18:00.377Z,49.13
2023-04-08T05:20:26.904Z,49.27
2023-04-08T05:22:53.366Z,49.33
2023-04-08T05:25:19.951Z,49.26
2023-04-08T05:27:46.983Z,48.69
2023-04-08T05:30:13.527Z,49.35
2023-04-08T05:32:40.063Z,48.98
2023-04-08T05:35:07.027Z,48.74
2023-04-08T05:37:33.509Z,49.21
2023-04-08T05:40:00.040Z,48.70
2023-04-08T05:42:27.075Z,48.82
2023-04-08T05:44:53.552Z,49.59
2023-04-08T05:47:20.306Z,49.22
2023-04-08T05:49:46.817Z,49.34
2023-04-08T05:52:13.328Z,48.66
2023-04-08T05:54:42.976Z,48.83
2023-04-08T05:57:10.524Z,48.81
2023-04-08T05:59:37.106Z,49.15
2023-04-08T06:02:03.810Z,49.33
2023-04-08T06:04:30.496Z,49.34
2023-04-08T06:06:59.734Z,49.44
2023-04-08T06:09:26.489Z,49.13
2023-04-08T06:11:52.971Z,48.96
2023-04-08T06:14:20.837Z,49.28
2023-04-08T06:16:47.528Z,48.91
2023-04-08T06:19:14.057Z,49.17
2023-04-08T06:21:40.550Z,48.95
2023-04-08T06:24:07.021Z,49.03
2023-04-08T06:26:33.558Z,48.82
2023-04-08T06:29:00.630Z,49.17
2023-04-08T06:31:27.141Z,49.08
2023-04-08T06:33:53.644Z,48.98
2023-04-08T06:36:20.471Z,48.93
2023-04-08T06:38:47.074Z,48.98
2023-04-08T06:41:13.558Z,48.75
2023-04-08T06:43:40.044Z,48.92
2023-04-08T06:46:07.027Z,48.89
2023-04-08T06:48:33.704Z,48.56
2023-04-08T06:51:01.293Z,48.51
2023-04-08T06:53:29.456Z,48.67
2023-04-08T06:55:55.985Z,48.75
2023-04-08T06:58:22.658Z,48.44
2023-04-08T07:00:49.250Z,48.42
2023-04-08T07:03:16.075Z,48.38
2023-04-08T07:05:42.617Z,48.41
2023-04-08T07:08:09.222Z,48.33
2023-04-08T07:10:36.102Z,48.60
2023-04-08T07:13:02.993Z,48.65
2023-04-08T07:15:29.544Z,48.62
2023-04-08T07:17:59.914Z,48.27
2023-04-08T07:20:26.642Z,48.38
2023-04-08T07:22:53.232Z,47.93
2023-04-08T07:25:19.809Z,47.75
2023-04-08T07:27:46.558Z,48.03
2023-04-08T07:30:13.159Z,48.05
2023-04-08T07:32:39.871Z,47.66
2023-04-08T07:35:06.574Z,47.64
2023-04-08T07:37:33.141Z,47.57
2023-04-08T07:39:59.637Z,47.83
2023-04-08T07:42:26.125Z,47.53
2023-04-08T07:44:52.841Z,47.24
2023-04-08T07:47:19.411Z,47.00
2023-04-08T07:49:47.008Z,47.38
2023-04-08T07:52:13.494Z,47.16
2023-04-08T07:54:40.022Z,47.36
2023-04-08T07:57:06.623Z,47.77
2023-04-08T07:59:33.388Z,46.70
2023-04-08T08:01:59.897Z,46.66
2023-04-08T08:04:26.755Z,46.79
2023-04-08T08:06:53.418Z,47.00
2023-04-08T08:09:19.924Z,46.98
2023-04-08T08:11:46.435Z,46.77
2023-04-08T08:14:13.956Z,46.80
2023-04-08T08:16:40.512Z,46.42
2023-04-08T08:19:08.767Z,46.57
2023-04-08T08:21:38.282Z,46.50
2023-04-08T08:24:05.031Z,46.08
2023-04-08T08:26:31.535Z,46.38
2023-04-08T08:28:58.056Z,46.18
2023-04-08T08:31:24.567Z,45.64
2023-04-08T08:33:51.333Z,45.66
2023-04-08T08:36:18.214Z,45.39
2023-04-08T08:38:44.771Z,45.21
2023-04-08T08:41:11.257Z,44.75
2023-04-08T08:43:38.338Z,44.85
2023-04-08T08:46:04.824Z,44.72
2023-04-08T08:48:32.372Z,44.51
2023-04-08T08:50:58.854Z,43.91
2023-04-08T08:53:29.975Z,44.15
2023-04-08T08:58:27.739Z,43.95
2023-04-08T09:00:54.245Z,44.02
2023-04-08T09:03:27.657Z,44.05
2023-04-08T09:05:59.768Z,44.26
2023-04-08T09:08:36.886Z,43.57
2023-04-08T09:11:17.503Z,43.38
2023-04-08T09:13:45.068Z,42.72
2023-04-08T09:16:13.959Z,42.35
2023-04-08T09:18:44.815Z,41.54
2023-04-08T09:21:12.462Z,41.22
2023-04-08T09:23:49.938Z,41.41
2023-04-08T09:26:20.100Z,41.28
2023-04-08T09:29:14.748Z,41.21
2023-04-08T09:31:57.944Z,40.09
2023-04-08T09:34:25.598Z,41.04
2023-04-08T09:36:53.163Z,41.52
2023-04-08T09:39:19.874Z,41.52
2023-04-08T09:41:48.889Z,41.51
2023-04-08T09:44:17.039Z,41.52
2023-04-08T09:46:49.181Z,41.31
2023-04-08T09:49:23.034Z,41.20
2023-04-08T09:52:08.575Z,41.42
2023-04-08T09:54:53.206Z,41.42
2023-04-08T09:57:31.343Z,41.24
2023-04-08T10:00:03.535Z,41.58
2023-04-08T10:03:07.503Z,41.03
2023-04-08T10:05:37.802Z,41.41
2023-04-08T10:08:05.827Z,41.68
2023-04-08T10:10:32.810Z,41.93
2023-04-08T10:12:59.545Z,41.40
2023-04-08T10:15:36.906Z,41.56
2023-04-08T10:18:03.301Z,41.36
2023-04-08T10:20:38.729Z,41.37
2023-04-08T10:23:10.616Z,40.92
2023-04-08T10:25:48.020Z,40.88
2023-04-08T10:28:15.243Z,41.48
2023-04-08T10:30:46.152Z,40.45
2023-04-08T10:33:22.903Z,40.05
2023-04-08T10:36:00.889Z,39.71
2023-04-08T10:38:27.436Z,38.95
2023-04-08T10:40:54.246Z,38.63
2023-04-08T10:43:21.065Z,38.30
2023-04-08T10:45:51.345Z,38.34
2023-04-08T10:48:19.878Z,38.29
2023-04-08T10:50:56.985Z,38.28
2023-04-08T10:53:31.262Z,38.52
2023-04-08T10:56:08.113Z,38.59
2023-04-08T10:58:51.184Z,37.93
2023-04-08T11:01:19.858Z,37.80
2023-04-08T11:03:46.566Z,37.73
2023-04-08T11:06:13.257Z,37.93
2023-04-08T11:08:39.819Z,37.75
2023-04-08T11:11:11.681Z,37.83
2023-04-08T11:13:46.457Z,37.60
2023-04-08T11:16:19.441Z,37.81
2023-04-08T11:18:46.247Z,37.61
2023-04-08T11:21:12.863Z,38.04
2023-04-08T11:23:39.400Z,37.37
2023-04-08T11:26:06.527Z,37.24
2023-04-08T11:28:33.168Z,37.35
2023-04-08T11:30:59.827Z,37.51
2023-04-08T11:33:27.343Z,37.28
2023-04-08T11:35:54.054Z,37.52
2023-04-08T11:38:24.679Z,37.16
2023-04-08T11:40:55.575Z,37.08
2023-04-08T11:43:22.466Z,36.96
2023-04-08T11:45:49.031Z,36.54
2023-04-08T11:48:16.449Z,37.03
2023-04-08T11:50:43.956Z,36.33
2023-04-08T11:53:21.367Z,36.34
2023-04-08T11:55:48.968Z,36.32
2023-04-08T11:58:15.817Z,36.36
2023-04-08T12:00:42.853Z,36.43
2023-04-08T12:03:09.540Z,36.37
2023-04-08T12:05:36.347Z,35.96
2023-04-08T12:08:03.526Z,36.15
2023-04-08T12:10:30.098Z,36.32
2023-04-08T12:12:56.742Z,36.08
2023-04-08T12:15:23.248Z,36.11
2023-04-08T12:17:49.911Z,36.30
2023-04-08T12:20:17.330Z,36.79
2023-04-08T12:22:43.867Z,36.98
2023-04-08T12:25:10.354Z,35.74
2023-04-08T12:27:36.864Z,34.77
2023-04-08T12:30:03.692Z,36.13
2023-04-08T12:32:30.224Z,34.50
2023-04-08T12:34:56.870Z,33.94
2023-04-08T12:37:23.376Z,34.12
2023-04-08T12:39:49.932Z,33.24
2023-04-08T12:42:16.603Z,31.76
2023-04-08T12:44:43.127Z,30.87
2023-04-08T12:47:09.817Z,29.53
2023-04-08T12:49:48.823Z,28.59
2023-04-08T12:52:16.216Z,27.97
2023-04-08T12:54:42.800Z,28.50
2023-04-08T12:57:09.333Z,28.53
2023-04-08T12:59:35.986Z,28.05
2023-04-08T13:02:02.555Z,28.44
2023-04-08T13:04:29.083Z,28.64
2023-04-08T13:06:56.357Z,29.02
2023-04-08T13:09:22.978Z,29.29
2023-04-08T13:11:49.590Z,29.50
2023-04-08T13:14:16.432Z,29.26
2023-04-08T13:16:42.958Z,28.36
2023-04-08T13:19:09.486Z,28.29
2023-04-08T13:21:36.244Z,28.23
2023-04-08T13:24:02.750Z,28.47
2023-04-08T13:26:29.350Z,28.65
2023-04-08T13:28:57.610Z,28.80
2023-04-08T13:31:24.942Z,28.59
2023-04-08T13:33:51.581Z,28.01
2023-04-08T13:36:18.150Z,28.55
2023-04-08T13:38:46.068Z,27.64
2023-04-08T13:41:12.621Z,26.92
2023-04-08T13:43:39.089Z,26.80
2023-04-08T13:46:05.798Z,25.98
2023-04-08T13:48:32.406Z,24.82
2023-04-08T13:50:58.915Z,23.65
2023-04-08T13:53:25.377Z,24.00
2023-04-08T13:55:55.165Z,23.69
2023-04-08T13:58:24.168Z,23.92
2023-04-08T14:00:51.678Z,24.07
2023-04-08T14:03:18.987Z,22.88
2023-04-08T14:05:45.911Z,23.44
2023-04-08T14:08:13.616Z,23.31
2023-04-08T14:10:41.911Z,23.70
2023-04-08T14:13:08.867Z,24.35
2023-04-08T14:15:35.442Z,24.06
2023-04-08T14:18:02.100Z,25.75
2023-04-08T14:20:28.694Z,25.15
2023-04-08T14:22:56.658Z,24.33
2023-04-08T14:25:23.646Z,23.83
2023-04-08T14:27:58.040Z,24.07
2023-04-08T14:30:25.794Z,24.48
2023-04-08T14:32:52.760Z,24.44
2023-04-08T14:35:19.353Z,24.19
2023-04-08T14:37:45.898Z,24.04
2023-04-08T14:40:12.530Z,23.72
2023-04-08T14:42:39.180Z,23.52
2023-04-08T14:45:06.067Z,23.22
2023-04-08T14:47:32.705Z,22.82
2023-04-08T14:49:59.225Z,23.04
2023-04-08T14:52:25.713Z,23.26
2023-04-08T14:54:53.670Z,23.01
2023-04-08T14:57:20.391Z,22.95
2023-04-08T14:59:46.941Z,23.38
2023-04-08T15:02:13.730Z,23.81
2023-04-08T15:04:40.365Z,24.16
2023-04-08T15:07:07.558Z,24.51
2023-04-08T15:09:34.099Z,24.85
2023-04-08T15:12:01.365Z,24.96
2023-04-08T15:14:28.115Z,25.25
2023-04-08T15:16:54.648Z,25.86
2023-04-08T15:19:21.192Z,26.42
2023-04-08T15:21:47.693Z,26.19
2023-04-08T15:24:14.216Z,26.61
2023-04-08T15:26:41.098Z,27.09
2023-04-08T15:29:07.983Z,26.99
2023-04-08T15:31:35.191Z,27.28
2023-04-08T15:34:02.887Z,27.30
2023-04-08T15:36:29.950Z,27.47
2023-04-08T15:38:56.796Z,27.12
2023-04-08T15:41:23.290Z,27.23
2023-04-08T15:43:50.182Z,27.31
2023-04-08T15:46:22.994Z,27.11
2023-04-08T15:48:50.197Z,27.68
2023-04-08T15:51:18.127Z,27.51
2023-04-08T15:53:44.690Z,27.71
2023-04-08T15:56:18.084Z,27.31
2023-04-08T15:58:45.644Z,27.62
2023-04-08T16:01:12.360Z,27.45
2023-04-08T16:03:39.296Z,27.46
2023-04-08T16:06:06.224Z,27.18
2023-04-08T16:08:34.741Z,27.10
2023-04-08T16:11:02.718Z,27.37
2023-04-08T16:13:30.208Z,27.56
2023-04-08T16:15:58.186Z,27.58
2023-04-08T16:18:25.187Z,27.98
2023-04-08T16:20:51.731Z,27.79
2023-04-08T16:23:18.248Z,27.96
2023-04-08T16:25:45.054Z,27.99
2023-04-08T16:28:11.857Z,28.14
2023-04-08T16:30:38.800Z,28.02
2023-04-08T16:33:06.269Z,28.30
2023-04-08T16:35:33.017Z,28.38
2023-04-08T16:37:59.646Z,28.33
2023-04-08T16:40:26.236Z,28.56
2023-04-08T16:42:52.889Z,28.62
2023-04-08T16:45:19.531Z,28.75
2023-04-08T16:47:46.146Z,28.64
2023-04-08T16:50:12.730Z,29.19
2023-04-08T16:52:39.236Z,29.52
2023-04-08T16:55:06.139Z,29.63
2023-04-08T16:57:32.590Z,29.60
2023-04-08T16:59:59.137Z,30.25
2023-04-08T17:02:26.053Z,31.57
2023-04-08T17:04:52.639Z,32.05
2023-04-08T17:07:19.174Z,32.72
2023-04-08T17:09:49.478Z,33.25
2023-04-08T17:12:16.293Z,33.17
2023-04-08T17:14:42.969Z,33.56
2023-04-08T17:17:09.519Z,32.95
2023-04-08T17:19:36.704Z,33.68
2023-04-08T17:22:03.216Z,33.85
2023-04-08T17:24:29.853Z,34.42
2023-04-08T17:26:59.952Z,34.42
2023-04-08T17:29:26.493Z,34.36
2023-04-08T17:31:53.145Z,34.79
2023-04-08T17:34:19.677Z,34.99
2023-04-08T17:36:46.318Z,35.59
2023-04-08T17:39:12.854Z,35.77
2023-04-08T17:41:41.094Z,35.17
2023-04-08T17:44:08.651Z,35.56
2023-04-08T17:46:35.444Z,35.44
2023-04-08T17:49:01.989Z,36.32
2023-04-08T17:51:30.195Z,35.80
2023-04-08T17:53:56.767Z,35.78
2023-04-08T17:56:23.670Z,36.67
2023-04-08T17:58:50.290Z,36.84
2023-04-08T18:01:17.111Z,36.55
2023-04-08T18:03:43.870Z,36.03
2023-04-08T18:06:10.690Z,36.78
2023-04-08T18:08:37.181Z,36.58
2023-04-08T18:11:06.623Z,36.74
2023-04-08T18:13:33.327Z,36.76
2023-04-08T18:15:59.843Z,36.66
2023-04-08T18:18:26.332Z,36.77
2023-04-08T18:20:52.846Z,36.81
2023-04-08T18:23:19.392Z,36.85
2023-04-08T18:25:46.723Z,36.71
2023-04-08T18:28:13.277Z,36.61
2023-04-08T18:30:39.808Z,36.67
2023-04-08T18:33:06.781Z,36.53
2023-04-08T18:35:33.381Z,36.28
2023-04-08T18:37:59.877Z,36.14
2023-04-08T18:40:26.531Z,36.00
2023-04-08T18:42:53.041Z,36.08
2023-04-08T18:45:19.553Z,36.48
2023-04-08T18:47:46.538Z,36.04
2023-04-08T18:50:13.035Z,35.79
2023-04-08T18:52:39.595Z,35.88
2023-04-08T18:55:06.250Z,35.59
2023-04-08T18:57:33.198Z,35.32
2023-04-08T18:59:59.681Z,35.36
2023-04-08T19:02:26.265Z,35.41
2023-04-08T19:04:52.823Z,35.38
2023-04-08T19:07:19.373Z,35.57
2023-04-08T19:09:45.883Z,35.49
2023-04-08T19:12:12.506Z,35.19
2023-04-08T19:14:39.651Z,35.38
2023-04-08T19:17:06.299Z,35.29
2023-04-08T19:19:32.803Z,35.43
2023-04-08T19:22:02.682Z,35.18
2023-04-08T19:24:29.201Z,34.98
2023-04-08T19:26:55.719Z,35.06
2023-04-08T19:29:23.370Z,35.01
2023-04-08T19:31:50.070Z,34.95
2023-04-08T19:34:16.587Z,35.04
2023-04-08T19:36:43.118Z,35.14
2023-04-08T19:39:09.581Z,34.82
2023-04-08T19:41:36.096Z,34.85
2023-04-08T19:44:02.560Z,34.72
2023-04-08T19:46:29.495Z,34.67
2023-04-08T19:48:58.730Z,34.61
2023-04-08T19:51:25.285Z,34.68
2023-04-08T19:53:53.191Z,34.61
2023-04-08T19:56:19.929Z,34.56
2023-04-08T19:58:46.516Z,34.95
2023-04-08T20:01:14.155Z,34.80
2023-04-08T20:03:42.117Z,34.84
2023-04-08T20:06:08.973Z,34.67
2023-04-08T20:08:35.591Z,34.64
2023-04-08T20:11:04.464Z,34.68
2023-04-08T20:13:31.346Z,34.62
2023-04-08T20:15:58.020Z,34.62
2023-04-08T20:18:24.517Z,35.15
2023-04-08T20:20:51.060Z,35.06
2023-04-08T20:23:17.591Z,34.76
2023-04-08T20:25:44.048Z,34.93
2023-04-08T20:28:10.540Z,34.87
2023-04-08T20:30:37.752Z,34.97
2023-04-08T20:33:04.393Z,35.01
2023-04-08T20:35:31.034Z,35.41
2023-04-08T20:37:57.552Z,35.17
2023-04-08T20:40:24.096Z,35.30
2023-04-08T20:42:50.594Z,35.09
2023-04-08T20:45:17.048Z,35.53
2023-04-08T20:47:46.091Z,35.20
2023-04-08T20:50:12.727Z,35.29
2023-04-08T20:52:39.533Z,35.26
2023-04-08T20:55:07.115Z,35.42
2023-04-08T20:57:33.648Z,35.65
2023-04-08T21:00:00.559Z,35.43
2023-04-08T21:02:27.221Z,35.53
2023-04-08T21:04:53.774Z,35.86
2023-04-08T21:07:20.277Z,36.11
2023-04-08T21:09:48.297Z,35.84
2023-04-08T21:12:14.785Z,35.92
2023-04-08T21:14:42.069Z,36.38
2023-04-08T21:17:08.579Z,36.09
2023-04-08T21:19:35.435Z,36.04
2023-04-08T21:22:01.930Z,36.07
2023-04-08T21:24:28.554Z,36.23
2023-04-08T21:26:55.035Z,36.52
2023-04-08T21:29:21.526Z,36.34
2023-04-08T21:31:48.023Z,36.36
2023-04-08T21:34:15.745Z,36.26
2023-04-08T21:36:42.219Z,35.92
2023-04-08T21:39:08.709Z,36.12
2023-04-08T21:41:35.309Z,35.92
2023-04-08T21:44:02.148Z,36.00
2023-04-08T21:46:28.664Z,35.95
2023-04-08T21:48:55.300Z,36.26
2023-04-08T21:51:21.882Z,36.04
2023-04-08T21:53:50.652Z,36.28
2023-04-08T21:56:17.408Z,36.51
2023-04-08T21:58:43.955Z,36.64
2023-04-08T22:01:10.473Z,36.29
2023-04-08T22:03:37.075Z,36.59
2023-04-08T22:06:03.678Z,36.53
2023-04-08T22:08:32.506Z,36.72
2023-04-08T22:10:59.130Z,37.12
2023-04-08T22:13:25.616Z,36.95
2023-04-08T22:15:52.113Z,36.89
2023-04-08T22:18:18.615Z,37.03
2023-04-08T22:20:45.177Z,37.05
2023-04-08T22:23:11.680Z,37.23
2023-04-08T22:25:38.211Z,37.51
2023-04-08T22:28:04.667Z,37.34
2023-04-08T22:30:31.230Z,37.41
2023-04-08T22:32:57.906Z,37.62
2023-04-08T22:35:24.478Z,37.40
2023-04-08T22:37:51.174Z,37.81
2023-04-08T22:40:17.811Z,37.93
2023-04-08T22:42:44.300Z,37.57
2023-04-08T22:45:10.954Z,37.48
2023-04-08T22:47:37.645Z,37.77
2023-04-08T22:50:04.700Z,38.22
2023-04-08T22:52:31.203Z,38.06
2023-04-08T22:54:57.712Z,37.97
2023-04-08T22:57:24.281Z,38.83
2023-04-08T22:59:50.807Z,38.64
2023-04-08T23:02:17.471Z,38.57
2023-04-08T23:04:44.045Z,39.10
2023-04-08T23:07:11.064Z,38.69
2023-04-08T23:09:37.605Z,38.86
2023-04-08T23:12:04.141Z,39.54
2023-04-08T23:14:30.626Z,39.43
2023-04-08T23:16:57.115Z,39.49
2023-04-08T23:19:23.650Z,39.37
2023-04-08T23:21:50.383Z,39.71
2023-04-08T23:24:16.850Z,39.54
2023-04-08T23:26:43.369Z,39.33
2023-04-08T23:29:10.595Z,39.05
2023-04-08T23:31:37.107Z,39.81
2023-04-08T23:34:03.900Z,39.93
2023-04-08T23:36:31.349Z,39.87
2023-04-08T23:38:57.932Z,39.95
2023-04-08T23:41:24.450Z,39.61
2023-04-08T23:43:52.566Z,39.94
2023-04-08T23:46:19.115Z,40.47
2023-04-08T23:48:45.618Z,39.87
2023-04-08T23:51:12.169Z,40.58
2023-04-08T23:53:38.745Z,39.63
2023-04-08T23:56:06.520Z,40.42
2023-04-08T23:58:33.301Z,40.26
